Аэропорт
Краснодар (URKK)

 URKK / KRR
ЗЦ Ростов-на-Дону
Ростов-на-Дону (URRV)
Ростов-на-Дону (URRV)
 45.03470, 39.17050  / 118 ft

 URKK 140154Z 1403/1503 24003G08MPS 5000 BR SCT015 BKN020CB TEMPO 1403/1418 3100 -TSRASN BKN011 BKN020CB
показать схемы

Аэропорт Краснодара — Пашковский

 

Международный аэропорт города Краснодар. Расположен на восточной окраине Краснодара, в 12 км от центра города. Является крупнейшим аэропортом Юга России наряду с аэропортом Сочи, занимает 7-е место по пассажиропотоку среди российских аэропортов.

 

 

 

ВПП 05Ц/23Ц, 2400×45м, армобетон (временная, на месте РД М);
ВПП 05П/23Л, 3000х45м, армобетон (реконструируется);
ВПП 05Л/23П, 2200х49м, асфальтобетон (не используется).

Аэродром Пашковский способен принимать самолеты:
Ил-76,
Ту-154, Ту-204,
Boeing 737 (за исключением Boeing 737-900), Boeing 757 (с ограничениями),
Airbus A319, Airbus A320,
Embraer 195
и все более лёгкие, а также вертолёты всех типов.

 

По данным на 2015г. в аэропорт Витязево совершают регулярные и чартерные рейсы авиакомпании Nordstar Airlines, S7 Airlines, Алроса, Аэрофлот, Газпромавиа, Ижавиа, ИрАэро, Костромское  авиапредприятие, Нордавиа, Оренбургские авиалинии, Победа, Полёт, Россия, РусЛайн, Северсталь, Трансаэро, Уральские авиалинии, ЮТэйр, Якутия, Ямал.

 



2018 © VATRUS division